createdAt,value
2019-06-01T00:02:16.189Z,18.05
2019-06-01T00:04:47.105Z,18.04
2019-06-01T00:07:16.797Z,18.02
2019-06-01T00:09:47.252Z,18.05
2019-06-01T00:12:16.767Z,18.04
2019-06-01T00:14:48.136Z,18.00
2019-06-01T00:17:17.723Z,17.96
2019-06-01T00:19:48.262Z,17.96
2019-06-01T00:22:17.943Z,17.98
2019-06-01T00:24:48.027Z,18.03
2019-06-01T00:27:17.710Z,18.12
2019-06-01T00:29:49.510Z,18.11
2019-06-01T00:32:19.058Z,18.10
2019-06-01T00:34:49.652Z,18.13
2019-06-01T00:37:19.367Z,18.13
2019-06-01T00:39:49.928Z,18.13
2019-06-01T00:42:19.549Z,18.22
2019-06-01T00:44:50.447Z,18.28
2019-06-01T00:47:20.057Z,18.27
2019-06-01T00:49:50.989Z,18.32
2019-06-01T00:52:20.604Z,18.26
2019-06-01T00:54:51.414Z,18.21
2019-06-01T00:57:22.177Z,18.19
2019-06-01T00:59:53.695Z,18.19
2019-06-01T01:02:23.533Z,18.17
2019-06-01T01:05:02.950Z,18.15
2019-06-01T01:07:32.449Z,18.19
2019-06-01T01:10:01.947Z,18.16
2019-06-01T01:12:33.050Z,18.19
2019-06-01T01:15:02.851Z,18.21
2019-06-01T01:17:32.442Z,18.23
2019-06-01T01:20:02.077Z,18.26
2019-06-01T01:22:31.820Z,18.27
2019-06-01T01:25:01.758Z,18.27
2019-06-01T01:27:31.344Z,18.30
2019-06-01T01:30:00.929Z,18.36
2019-06-01T01:32:30.637Z,18.37
2019-06-01T01:35:00.100Z,18.37
2019-06-01T01:37:30.039Z,18.37
2019-06-01T01:39:59.487Z,18.45
2019-06-01T01:42:28.976Z,18.43
2019-06-01T01:44:58.693Z,18.38
2019-06-01T01:47:29.147Z,18.35
2019-06-01T01:49:58.619Z,18.31
2019-06-01T01:52:28.246Z,18.29
2019-06-01T01:54:58.905Z,18.29
2019-06-01T01:57:28.538Z,18.29
2019-06-01T01:59:59.397Z,18.30
2019-06-01T02:02:28.934Z,18.32
2019-06-01T02:04:58.388Z,18.27
2019-06-01T02:07:27.998Z,18.20
2019-06-01T02:09:57.486Z,18.21
2019-06-01T02:12:27.511Z,18.23
2019-06-01T02:14:57.714Z,18.26
2019-06-01T02:17:27.309Z,18.28
2019-06-01T02:19:56.881Z,18.29
2019-06-01T02:22:27.583Z,18.26
2019-06-01T02:24:57.803Z,18.29
2019-06-01T02:27:27.748Z,18.29
2019-06-01T02:29:57.338Z,18.23
2019-06-01T02:32:26.846Z,18.27
2019-06-01T02:34:56.450Z,18.32
2019-06-01T02:37:29.714Z,18.34
2019-06-01T02:40:00.931Z,18.35
2019-06-01T02:42:30.507Z,18.34
2019-06-01T02:45:01.549Z,18.39
2019-06-01T02:47:31.671Z,18.38
2019-06-01T02:50:04.419Z,18.34
2019-06-01T02:52:35.231Z,18.36
2019-06-01T02:55:06.487Z,18.36
2019-06-01T02:57:36.090Z,18.41
2019-06-01T03:00:06.888Z,18.48
2019-06-01T03:02:37.406Z,18.46
2019-06-01T03:05:07.713Z,18.47
2019-06-01T03:07:40.423Z,18.44
2019-06-01T03:10:10.033Z,18.42
2019-06-01T03:12:46.519Z,18.44
2019-06-01T03:15:17.191Z,18.35
2019-06-01T03:17:51.267Z,18.33
2019-06-01T03:20:20.939Z,18.31
2019-06-01T03:22:53.389Z,18.25
2019-06-01T03:25:22.895Z,18.21
2019-06-01T03:27:55.851Z,18.25
2019-06-01T03:30:50.932Z,18.25
2019-06-01T03:33:20.557Z,18.24
2019-06-01T03:35:50.032Z,18.27
2019-06-01T03:38:19.823Z,18.30
2019-06-01T03:40:49.285Z,18.34
2019-06-01T03:43:19.525Z,18.38
2019-06-01T03:45:49.071Z,18.45
2019-06-01T03:48:18.546Z,18.50
2019-06-01T03:50:48.010Z,18.48
2019-06-01T03:53:17.523Z,18.53
2019-06-01T03:55:47.029Z,18.60
2019-06-01T03:58:16.638Z,18.64
2019-06-01T04:00:46.342Z,18.70
2019-06-01T04:03:15.865Z,18.70
2019-06-01T04:05:45.305Z,18.76
2019-06-01T04:08:15.169Z,18.75
2019-06-01T04:10:44.612Z,18.76
2019-06-01T04:13:14.195Z,18.73
2019-06-01T04:15:43.779Z,18.77
2019-06-01T04:18:13.905Z,18.74
2019-06-01T04:20:44.706Z,18.79
2019-06-01T04:23:14.323Z,18.89
2019-06-01T04:25:43.793Z,18.88
2019-06-01T04:28:13.341Z,18.90
2019-06-01T04:30:44.921Z,18.98
2019-06-01T04:33:14.355Z,18.99
2019-06-01T04:35:43.834Z,18.98
2019-06-01T04:38:13.515Z,19.00
2019-06-01T04:40:43.079Z,19.07
2019-06-01T04:43:14.008Z,19.02
2019-06-01T04:45:43.920Z,19.08
2019-06-01T04:48:14.681Z,19.15
2019-06-01T04:50:44.249Z,19.20
2019-06-01T04:53:15.033Z,19.23
2019-06-01T04:55:44.822Z,19.23
2019-06-01T04:58:15.069Z,19.23
2019-06-01T05:00:44.563Z,19.24
2019-06-01T05:03:15.225Z,19.22
2019-06-01T05:05:45.026Z,19.13
2019-06-01T05:08:15.667Z,19.18
2019-06-01T05:10:45.374Z,19.23
2019-06-01T05:13:15.686Z,19.30
2019-06-01T05:15:45.372Z,19.31
2019-06-01T05:18:18.440Z,19.40
2019-06-01T05:20:46.668Z,19.45
2019-06-01T05:23:16.953Z,19.48
2019-06-01T05:25:46.604Z,19.50
2019-06-01T05:28:17.367Z,19.51
2019-06-01T05:30:47.201Z,19.58
2019-06-01T05:33:29.483Z,19.65
2019-06-01T05:35:47.900Z,19.70
2019-06-01T05:38:19.007Z,19.75
2019-06-01T05:40:48.478Z,19.78
2019-06-01T05:43:21.117Z,19.86
2019-06-01T05:45:49.339Z,19.88
2019-06-01T05:48:24.714Z,19.98
2019-06-01T05:50:50.566Z,20.04
2019-06-01T05:53:20.249Z,20.07
2019-06-01T05:55:49.794Z,20.08
2019-06-01T05:58:19.821Z,20.13
2019-06-01T06:00:49.942Z,20.18
2019-06-01T06:03:22.324Z,20.23
2019-06-01T06:05:50.683Z,20.18
2019-06-01T06:08:20.259Z,20.26
2019-06-01T06:10:49.853Z,20.34
2019-06-01T06:13:21.641Z,20.29
2019-06-01T06:15:51.605Z,20.48
2019-06-01T06:18:21.989Z,20.55
2019-06-01T06:20:51.629Z,20.49
2019-06-01T06:23:22.629Z,20.48
2019-06-01T06:25:52.407Z,20.44
2019-06-01T06:28:22.958Z,20.44
2019-06-01T06:30:53.683Z,20.67
2019-06-01T06:33:23.710Z,20.94
2019-06-01T06:35:53.331Z,21.45
2019-06-01T06:38:24.079Z,21.50
2019-06-01T06:40:53.667Z,22.89
2019-06-01T06:43:31.030Z,23.76
2019-06-01T06:45:54.850Z,25.31
2019-06-01T06:48:25.264Z,25.80
2019-06-01T06:50:54.971Z,26.14
2019-06-01T06:53:33.560Z,26.61
2019-06-01T06:55:56.154Z,27.32
2019-06-01T06:58:26.536Z,28.15
2019-06-01T07:00:56.654Z,28.42
2019-06-01T07:03:27.195Z,28.57
2019-06-01T07:05:56.724Z,28.36
2019-06-01T07:08:26.630Z,28.21
2019-06-01T07:10:56.165Z,28.40
2019-06-01T07:13:25.988Z,27.70
2019-06-01T07:15:55.584Z,27.09
2019-06-01T07:18:25.781Z,26.27
2019-06-01T07:20:55.516Z,26.12
2019-06-01T07:23:25.946Z,25.58
2019-06-01T07:25:55.563Z,25.59
2019-06-01T07:28:26.140Z,25.39
2019-06-01T07:30:55.856Z,23.86
2019-06-01T07:33:26.435Z,23.86
2019-06-01T07:35:56.330Z,23.47
2019-06-01T07:38:26.804Z,23.79
2019-06-01T07:40:56.460Z,26.33
2019-06-01T07:43:26.832Z,28.10
2019-06-01T07:45:56.503Z,29.28
2019-06-01T07:48:27.138Z,29.57
2019-06-01T07:50:59.232Z,28.49
2019-06-01T07:53:29.544Z,30.06
2019-06-01T07:55:59.141Z,30.27
2019-06-01T07:58:28.991Z,30.57
2019-06-01T08:00:59.065Z,29.68
2019-06-01T08:03:32.593Z,28.61
2019-06-01T08:05:59.985Z,28.26
2019-06-01T08:08:29.654Z,29.39
2019-06-01T08:11:00.282Z,28.18
2019-06-01T08:13:33.427Z,28.39
2019-06-01T08:16:01.029Z,28.33
2019-06-01T08:18:30.443Z,27.15
2019-06-01T08:21:00.020Z,26.18
2019-06-01T08:23:34.168Z,25.96
2019-06-01T08:26:03.732Z,26.98
2019-06-01T08:28:35.236Z,26.69
2019-06-01T08:31:04.816Z,26.64
2019-06-01T08:33:35.015Z,27.57
2019-06-01T08:36:05.065Z,29.22
2019-06-01T08:38:34.880Z,30.41
2019-06-01T08:41:04.395Z,30.27
2019-06-01T08:43:34.011Z,30.30
2019-06-01T08:46:05.162Z,30.35
2019-06-01T08:48:34.648Z,32.05
2019-06-01T08:51:04.194Z,32.02
2019-06-01T08:53:34.276Z,31.23
2019-06-01T08:56:04.053Z,31.24
2019-06-01T08:58:34.645Z,32.45
2019-06-01T09:01:04.442Z,32.77
2019-06-01T09:03:39.902Z,33.09
2019-06-01T09:06:05.862Z,33.37
2019-06-01T09:08:35.503Z,34.32
2019-06-01T09:11:05.097Z,34.50
2019-06-01T09:13:35.471Z,34.96
2019-06-01T09:16:05.461Z,34.97
2019-06-01T09:18:35.818Z,35.52
2019-06-01T09:21:05.578Z,35.05
2019-06-01T09:23:37.107Z,35.08
2019-06-01T09:26:06.478Z,35.03
2019-06-01T09:28:36.271Z,34.36
2019-06-01T09:31:06.038Z,34.06
2019-06-01T09:33:36.863Z,33.30
2019-06-01T09:36:06.551Z,33.72
2019-06-01T09:38:36.230Z,34.04
2019-06-01T09:41:06.047Z,33.57
2019-06-01T09:43:35.663Z,32.84
2019-06-01T09:46:05.436Z,32.56
2019-06-01T09:48:35.666Z,31.48
2019-06-01T09:51:05.345Z,31.44
2019-06-01T09:53:36.126Z,30.65
2019-06-01T09:56:05.970Z,30.69
2019-06-01T09:58:36.897Z,30.16
2019-06-01T10:01:06.684Z,30.16
2019-06-01T10:03:36.552Z,29.78
2019-06-01T10:06:07.370Z,29.62
2019-06-01T10:08:38.166Z,29.43
2019-06-01T10:11:08.444Z,29.61
2019-06-01T10:13:38.560Z,29.58
2019-06-01T10:16:08.570Z,29.61
2019-06-01T10:18:38.945Z,29.19
2019-06-01T10:21:10.019Z,29.51
2019-06-01T10:23:40.053Z,28.92
2019-06-01T10:26:09.525Z,28.68
2019-06-01T10:28:39.834Z,28.14
2019-06-01T10:31:09.933Z,28.26
2019-06-01T10:33:39.471Z,28.83
2019-06-01T10:36:19.822Z,29.06
2019-06-01T10:38:41.467Z,28.98
2019-06-01T10:41:11.080Z,28.91
2019-06-01T10:43:41.757Z,28.45
2019-06-01T10:46:14.203Z,28.61
2019-06-01T10:48:45.822Z,28.89
2019-06-01T10:51:15.291Z,28.82
2019-06-01T10:53:44.898Z,28.81
2019-06-01T10:56:14.454Z,29.07
2019-06-01T10:58:59.415Z,28.81
2019-06-01T11:01:15.263Z,28.24
2019-06-01T11:03:44.975Z,28.09
2019-06-01T11:06:14.411Z,28.37
2019-06-01T11:08:43.919Z,28.33
2019-06-01T11:11:13.759Z,28.15
2019-06-01T11:13:43.379Z,27.94
2019-06-01T11:16:12.919Z,27.73
2019-06-01T11:18:43.619Z,27.86
2019-06-01T11:21:13.203Z,27.87
2019-06-01T11:23:46.133Z,27.77
2019-06-01T11:26:14.125Z,27.58
2019-06-01T11:28:44.344Z,27.54
2019-06-01T11:31:14.046Z,27.05
2019-06-01T11:33:44.272Z,27.07
2019-06-01T11:36:14.036Z,27.25
2019-06-01T11:38:45.129Z,27.06
2019-06-01T11:41:18.336Z,27.13
2019-06-01T11:43:46.225Z,27.15
2019-06-01T11:46:15.929Z,27.16
2019-06-01T11:48:45.540Z,27.32
2019-06-01T11:51:15.031Z,27.27
2019-06-01T11:53:45.631Z,27.21
2019-06-01T11:56:15.391Z,26.88
2019-06-01T11:58:45.616Z,27.04
2019-06-01T12:01:15.462Z,26.90
2019-06-01T12:03:46.212Z,26.94
2019-06-01T12:06:15.759Z,26.73
2019-06-01T12:08:46.319Z,26.69
2019-06-01T12:11:16.259Z,26.69
2019-06-01T12:13:46.554Z,26.79
2019-06-01T12:16:16.709Z,26.75
2019-06-01T12:18:46.900Z,26.78
2019-06-01T12:21:16.592Z,26.85
2019-06-01T12:23:47.653Z,26.96
2019-06-01T12:26:17.257Z,26.79
2019-06-01T12:28:47.886Z,26.78
2019-06-01T12:31:17.728Z,26.81
2019-06-01T12:33:48.664Z,26.91
2019-06-01T12:36:18.396Z,26.94
2019-06-01T12:38:52.215Z,26.95
2019-06-01T12:41:23.439Z,27.01
2019-06-01T12:44:12.433Z,26.88
2019-06-01T12:46:43.689Z,26.67
2019-06-01T12:49:13.468Z,26.64
2019-06-01T12:51:44.541Z,26.63
2019-06-01T12:54:15.069Z,26.61
2019-06-01T12:56:47.809Z,26.68
2019-06-01T12:59:17.700Z,26.62
2019-06-01T13:01:47.386Z,26.66
2019-06-01T13:04:17.806Z,26.82
2019-06-01T13:06:52.297Z,27.00
2019-06-01T13:09:21.420Z,27.09
2019-06-01T13:11:51.522Z,27.10
2019-06-01T13:14:21.211Z,27.15
2019-06-01T13:17:06.274Z,27.03
2019-06-01T13:19:24.007Z,27.20
2019-06-01T13:21:53.512Z,27.18
2019-06-01T13:24:23.019Z,27.11
2019-06-01T13:26:52.777Z,27.04
2019-06-01T13:29:25.320Z,26.78
2019-06-01T13:31:54.965Z,26.57
2019-06-01T13:34:26.094Z,26.89
2019-06-01T13:36:55.612Z,26.95
2019-06-01T13:39:25.104Z,27.02
2019-06-01T13:41:54.775Z,27.12
2019-06-01T13:44:24.337Z,27.03
2019-06-01T13:46:53.815Z,27.01
2019-06-01T13:49:23.345Z,27.05
2019-06-01T13:51:52.875Z,27.01
2019-06-01T13:54:22.432Z,27.29
2019-06-01T13:56:53.086Z,27.20
2019-06-01T13:59:23.191Z,27.06
2019-06-01T14:01:53.196Z,27.00
2019-06-01T14:04:22.920Z,27.18
2019-06-01T14:06:53.144Z,27.34
2019-06-01T14:09:23.274Z,27.43
2019-06-01T14:11:53.509Z,27.24
2019-06-01T14:14:23.051Z,27.28
2019-06-01T14:16:53.671Z,27.51
2019-06-01T14:19:23.338Z,27.52
2019-06-01T14:21:54.212Z,27.29
2019-06-01T14:24:23.821Z,27.10
2019-06-01T14:26:54.362Z,27.13
2019-06-01T14:29:24.049Z,27.26
2019-06-01T14:31:55.335Z,27.10
2019-06-01T14:34:25.552Z,27.02
2019-06-01T14:36:56.590Z,26.87
2019-06-01T14:39:26.299Z,26.83
2019-06-01T14:41:55.863Z,26.80
2019-06-01T14:44:25.524Z,26.55
2019-06-01T14:47:05.034Z,26.31
2019-06-01T14:49:26.267Z,26.24
2019-06-01T14:51:55.846Z,26.11
2019-06-01T14:54:25.991Z,25.84
2019-06-01T14:56:55.890Z,25.80
2019-06-01T14:59:25.541Z,25.88
2019-06-01T15:01:56.184Z,25.99
2019-06-01T15:04:26.168Z,25.97
2019-06-01T15:06:56.484Z,25.96
2019-06-01T15:09:26.150Z,25.83
2019-06-01T15:11:56.568Z,25.77
2019-06-01T15:14:26.225Z,25.72
2019-06-01T15:16:56.213Z,25.66
2019-06-01T15:19:25.868Z,25.53
2019-06-01T15:21:56.232Z,25.50
2019-06-01T15:24:26.267Z,25.73
2019-06-01T15:26:58.961Z,25.90
2019-06-01T15:29:29.086Z,25.72
2019-06-01T15:32:00.040Z,25.60
2019-06-01T15:34:30.077Z,25.66
2019-06-01T15:36:59.799Z,25.50
2019-06-01T15:39:29.424Z,25.39
2019-06-01T15:41:59.664Z,25.27
2019-06-01T15:44:29.357Z,25.10
2019-06-01T15:46:59.742Z,25.11
2019-06-01T15:49:29.553Z,25.12
2019-06-01T15:52:02.056Z,25.06
2019-06-01T15:54:31.819Z,25.01
2019-06-01T15:57:02.715Z,24.95
2019-06-01T15:59:32.693Z,25.04
2019-06-01T16:02:03.458Z,24.91
2019-06-01T16:04:33.414Z,24.98
2019-06-01T16:07:03.482Z,24.92
2019-06-01T16:09:42.593Z,24.88
2019-06-01T16:12:04.425Z,24.80
2019-06-01T16:14:33.957Z,24.80
2019-06-01T16:17:04.796Z,24.85
2019-06-01T16:19:34.429Z,24.83
2019-06-01T16:22:04.975Z,24.87
2019-06-01T16:24:34.572Z,24.88
2019-06-01T16:27:04.736Z,24.82
2019-06-01T16:29:34.588Z,24.74
2019-06-01T16:32:05.076Z,24.67
2019-06-01T16:34:36.121Z,24.62
2019-06-01T16:37:05.705Z,24.49
2019-06-01T16:39:35.216Z,24.46
2019-06-01T16:42:06.099Z,24.46
2019-06-01T16:44:35.937Z,24.44
2019-06-01T16:47:06.121Z,24.45
2019-06-01T16:49:36.141Z,24.52
2019-06-01T16:52:07.412Z,24.51
2019-06-01T16:54:37.775Z,24.59
2019-06-01T16:57:07.550Z,24.50
2019-06-01T16:59:37.060Z,24.48
2019-06-01T17:02:07.886Z,24.31
2019-06-01T17:04:37.731Z,24.20
2019-06-01T17:07:08.725Z,24.16
2019-06-01T17:09:39.061Z,24.17
2019-06-01T17:12:09.358Z,24.15
2019-06-01T17:14:39.584Z,24.17
2019-06-01T17:17:09.172Z,24.03
2019-06-01T17:19:39.439Z,23.91
2019-06-01T17:22:10.173Z,23.76
2019-06-01T17:24:39.657Z,23.72
2019-06-01T17:27:09.213Z,23.69
2019-06-01T17:29:39.477Z,23.52
2019-06-01T17:32:23.041Z,23.47
2019-06-01T17:34:43.586Z,23.49
2019-06-01T17:37:13.130Z,23.22
2019-06-01T17:39:42.697Z,23.12
2019-06-01T17:42:12.705Z,23.06
2019-06-01T17:44:42.318Z,22.94
2019-06-01T17:47:12.224Z,22.93
2019-06-01T17:49:41.791Z,22.93
2019-06-01T17:52:11.887Z,22.83
2019-06-01T17:54:41.394Z,22.69
2019-06-01T17:57:11.472Z,22.58
2019-06-01T17:59:41.043Z,22.52
2019-06-01T18:02:11.920Z,22.51
2019-06-01T18:04:41.520Z,22.43
2019-06-01T18:07:12.061Z,22.47
2019-06-01T18:09:41.656Z,22.45
2019-06-01T18:12:12.290Z,22.39
2019-06-01T18:14:41.812Z,22.32
2019-06-01T18:17:12.384Z,22.25
2019-06-01T18:19:42.351Z,22.22
2019-06-01T18:22:12.960Z,22.16
2019-06-01T18:24:42.585Z,22.01
2019-06-01T18:27:12.677Z,21.97
2019-06-01T18:29:48.324Z,21.97
2019-06-01T18:32:13.855Z,22.03
2019-06-01T18:34:43.567Z,21.98
2019-06-01T18:37:13.460Z,21.91
2019-06-01T18:39:47.928Z,21.91
2019-06-01T18:42:18.651Z,21.81
2019-06-01T18:44:46.704Z,21.76
2019-06-01T18:47:31.413Z,21.65
2019-06-01T18:49:47.738Z,21.65
2019-06-01T18:52:17.309Z,21.58
2019-06-01T18:54:47.084Z,21.48
2019-06-01T18:57:21.176Z,21.35
2019-06-01T18:59:48.281Z,21.36
2019-06-01T19:02:17.758Z,21.36
2019-06-01T19:04:47.342Z,21.32
2019-06-01T19:07:16.865Z,21.26
2019-06-01T19:09:46.474Z,21.24
2019-06-01T19:12:16.178Z,21.27
2019-06-01T19:14:45.652Z,21.18
2019-06-01T19:17:16.455Z,21.05
2019-06-01T19:19:46.331Z,21.00
2019-06-01T19:22:16.734Z,20.87
2019-06-01T19:24:46.244Z,20.82
2019-06-01T19:27:17.025Z,20.83
2019-06-01T19:29:46.554Z,20.68
2019-06-01T19:32:20.854Z,20.67
2019-06-01T19:34:48.009Z,20.69
2019-06-01T19:37:18.070Z,20.59
2019-06-01T19:39:48.999Z,20.51
2019-06-01T19:42:18.664Z,20.38
2019-06-01T19:44:48.576Z,20.33
2019-06-01T19:47:19.184Z,20.33
2019-06-01T19:49:48.895Z,20.17
2019-06-01T19:52:19.046Z,20.20
2019-06-01T19:54:50.654Z,20.08
2019-06-01T19:57:24.051Z,20.07
2019-06-01T19:59:54.698Z,20.08
2019-06-01T20:02:33.589Z,20.12
2019-06-01T20:04:56.607Z,20.08
2019-06-01T20:07:26.038Z,20.05
2019-06-01T20:09:55.974Z,20.04
2019-06-01T20:12:25.955Z,20.00
2019-06-01T20:14:55.492Z,19.87
2019-06-01T20:17:26.554Z,19.86
2019-06-01T20:19:56.339Z,19.85
2019-06-01T20:22:26.020Z,19.87
2019-06-01T20:24:55.601Z,19.81
2019-06-01T20:27:27.155Z,19.79
2019-06-01T20:29:56.664Z,19.75
2019-06-01T20:32:27.862Z,19.71
2019-06-01T20:34:57.780Z,19.63
2019-06-01T20:37:27.460Z,19.58
2019-06-01T20:39:57.062Z,19.57
2019-06-01T20:42:32.620Z,19.56
2019-06-01T20:44:58.829Z,19.50
2019-06-01T20:47:28.334Z,19.45
2019-06-01T20:49:58.052Z,19.42
2019-06-01T20:52:28.454Z,19.41
2019-06-01T20:54:57.961Z,19.36
2019-06-01T20:57:27.590Z,19.31
2019-06-01T20:59:57.150Z,19.29
2019-06-01T21:02:26.681Z,19.21
2019-06-01T21:04:56.189Z,19.14
2019-06-01T21:07:25.653Z,19.21
2019-06-01T21:09:58.116Z,19.22
2019-06-01T21:12:44.448Z,19.20
2019-06-01T21:14:58.938Z,19.22
2019-06-01T21:17:29.781Z,19.17
2019-06-01T21:20:04.218Z,19.17
2019-06-01T21:22:30.702Z,19.19
2019-06-01T21:25:00.412Z,19.16
2019-06-01T21:27:30.455Z,19.16
2019-06-01T21:30:00.180Z,19.16
2019-06-01T21:32:29.709Z,19.14
2019-06-01T21:34:59.378Z,19.14
2019-06-01T21:37:29.161Z,19.14
2019-06-01T21:39:58.738Z,19.10
2019-06-01T21:42:28.344Z,19.12
2019-06-01T21:45:00.986Z,19.07
2019-06-01T21:47:35.281Z,19.05
2019-06-01T21:50:05.254Z,18.99
2019-06-01T21:52:35.098Z,18.96
2019-06-01T21:55:04.697Z,18.92
2019-06-01T21:57:36.152Z,18.87
2019-06-01T22:00:09.691Z,18.77
2019-06-01T22:02:40.253Z,18.75
2019-06-01T22:05:10.442Z,18.74
2019-06-01T22:07:39.937Z,18.75
2019-06-01T22:10:09.804Z,18.72
2019-06-01T22:12:39.834Z,18.73
2019-06-01T22:15:10.165Z,18.69
2019-06-01T22:17:45.027Z,18.61
2019-06-01T22:20:14.645Z,18.57
2019-06-01T22:22:44.150Z,18.53
2019-06-01T22:25:13.893Z,18.51
2019-06-01T22:27:43.917Z,18.50
2019-06-01T22:30:15.275Z,18.50
2019-06-01T22:32:44.781Z,18.49
2019-06-01T22:35:18.716Z,18.51
2019-06-01T22:37:48.289Z,18.45
2019-06-01T22:40:19.378Z,18.44
2019-06-01T22:42:49.290Z,18.43
2019-06-01T22:45:20.105Z,18.49
2019-06-01T22:47:49.972Z,18.60
2019-06-01T22:50:22.795Z,18.65
2019-06-01T22:52:52.249Z,18.72
2019-06-01T22:55:22.046Z,18.78
2019-06-01T22:57:51.734Z,18.72
2019-06-01T23:00:21.530Z,18.73
2019-06-01T23:02:51.160Z,18.72
2019-06-01T23:05:24.945Z,18.63
2019-06-01T23:07:54.613Z,18.62
2019-06-01T23:10:29.532Z,18.60
2019-06-01T23:12:55.741Z,18.53
2019-06-01T23:15:25.689Z,18.46
2019-06-01T23:17:55.267Z,18.37
2019-06-01T23:20:28.042Z,18.35
2019-06-01T23:23:03.733Z,18.27
2019-06-01T23:25:35.461Z,18.20
2019-06-01T23:28:07.893Z,18.18
2019-06-01T23:30:37.986Z,18.21
2019-06-01T23:33:08.760Z,18.14
2019-06-01T23:35:38.479Z,18.09
2019-06-01T23:38:07.950Z,18.09
2019-06-01T23:40:37.482Z,18.03
2019-06-01T23:43:07.173Z,18.01
2019-06-01T23:45:36.757Z,18.00
2019-06-01T23:48:06.339Z,17.99
2019-06-01T23:50:36.269Z,17.97
2019-06-01T23:53:13.681Z,17.93
2019-06-01T23:55:37.111Z,17.81
2019-06-01T23:58:06.905Z,17.74
